• Join FlightAware (Why Join?)
  • Login
  • US Flag 
12:47AM EDT


 

Airport Tracker/Info


-or-


 

Live Flight TrackerFlight Track Log ✈ N724HS ✈ 20-Jun-2014 ✈ KFLL - MYAN / SAQ

Flight Track Log - Related Links

Times and Time Zones

All times are in EDT time to prevent confusion due to time zone crossing. See the N724HS flight status page for this flight to view local times or setup timezone preferences in your user account.

Time Position Orientation Groundspeed Altitude Reporting Facility
EDT Latitude Longitude Course Direction KTS MPH feet Rate Location/Type
09:55AM 26.0756 -80.1381 106° East 142 163 400  Level Miami Center
09:56AM 26.0603 -80.0792 106° East 167 192 1,400 960 Climbing Miami Center
09:57AM 26.0467 -80.0217 105° East 187 215 2,700 1,260 Climbing Miami Center
09:58AM 26.0361 -79.9664 102° East 186 214 4,100 1,260 Climbing Miami Center
09:59AM 26.0250 -79.9114 103° East 183 211 5,400 1,260 Climbing Miami Center
10:00AM 26.0222 -79.8531 93° East 185 213 6,700 1,200 Climbing Miami Center
10:01AM 26.0133 -79.7925 99° East 190 219 7,900 1,200 Climbing Miami Center
10:02AM 26.0081 -79.7194 95° East 202 232 9,300 1,200 Climbing Miami Center
10:03AM 26.0017 -79.6578 97° East 201 231 10,400 840 Climbing Miami Center
10:04AM 25.9956 -79.5928 96° East 208 239 11,100 240 Climbing Miami Center
10:05AM 25.9889 -79.5175 96° East 244 281 10,900 -120 Descending Miami Center
10:06AM 25.9797 -79.4389 97° East 253 291 10,900  Level Miami Center
10:07AM 25.9725 -79.3583 96° East 261 300 10,900  Level Miami Center
10:08AM 25.9611 -79.2775 99° East 262 302 10,900  Level Miami Center
10:09AM 25.9481 -79.1808 99° East 263 303 10,900  Level Miami Center
10:10AM 25.9264 -79.1064 108° East 256 295 10,900  Level Miami Center
10:11AM 25.8831 -79.0439 128° Southeast 255 293 10,900 -60 Level Miami Center
10:13AM 25.8411 -78.9806 126° Southeast 255 293 10,800 -300 Descending Miami Center
10:14AM 25.7981 -78.9167 127° Southeast 255 293 10,300 -540 Descending Miami Center
10:15AM 25.7553 -78.8511 126° Southeast 256 295 9,700 -600 Descending Miami Center
10:17AM 25.6784 -78.7490 130° Southeast  Level FlightAware Approximate
10:24AM 25.4180 -78.3593 123° Southeast  Level FlightAware Approximate
10:25AM 25.3840 -78.3012 123° Southeast  Level FlightAware Approximate
10:26AM 25.3454 -78.2468 128° Southeast  Level FlightAware Approximate
10:27AM 25.3066 -78.1925 128° Southeast  Level FlightAware Approximate
10:28AM 25.2560 -78.1587 146° Southeast  Level FlightAware Approximate
10:29AM 25.2043 -78.1199 146° Southeast  Level FlightAware Approximate
10:30AM 25.1460 -78.0951 160° South  Level FlightAware Approximate
10:31AM 25.0907 -78.0639 146° Southeast  Level FlightAware Approximate
10:32AM 25.0538 -78.0490 146° Southeast  Level Estimated
10:33AM 25.0538 -78.0490 105° East  Level Estimated
10:34AM 25.0538 -78.0490 146° Southeast  Level Estimated
10:35AM 25.0538 -78.0490 105° East  Level Estimated
10:36AM 25.0538 -78.0490 146° Southeast  Level Estimated
10:37AM 25.0538 -78.0490 105° East  Level Estimated
10:38AM 25.0538 -78.0490 146° Southeast  Level Estimated
10:39AM 25.0538 -78.0490 105° East  Level Estimated
10:40AM 25.0538 -78.0490 146° Southeast  Level Estimated
10:41AM 25.0538 -78.0490 105° East  Level Estimated
10:42AM 25.0538 -78.0490 146° Southeast  Level Estimated
10:43AM 25.0538 -78.0490 105° East  Level Estimated
10:44AM 25.0538 -78.0490 146° Southeast  Level Estimated
10:45AM 25.0538 -78.0490 105° East  Level Estimated
10:46AM 25.0538 -78.0490 146° Southeast  Level Estimated
10:47AM 25.0538 -78.0490 105° East  Level Estimated